sensor_id;sensor_type;location;lat;lon;timestamp;P1;durP1;ratioP1;P2;durP2;ratioP2
74630;SDS011;63138;55.082;38.804;2022-10-22T00:00:30;10.10;;;5.93;;
74630;SDS011;63138;55.082;38.804;2022-10-22T00:02:56;11.67;;;6.40;;
74630;SDS011;63138;55.082;38.804;2022-10-22T00:05:22;9.32;;;5.35;;
74630;SDS011;63138;55.082;38.804;2022-10-22T00:07:50;12.30;;;6.50;;
74630;SDS011;63138;55.082;38.804;2022-10-22T00:10:19;11.32;;;6.55;;
74630;SDS011;63138;55.082;38.804;2022-10-22T00:12:48;11.47;;;6.47;;
74630;SDS011;63138;55.082;38.804;2022-10-22T00:15:14;10.40;;;6.47;;
74630;SDS011;63138;55.082;38.804;2022-10-22T00:17:44;14.70;;;6.65;;
74630;SDS011;63138;55.082;38.804;2022-10-22T00:20:22;11.60;;;5.93;;
74630;SDS011;63138;55.082;38.804;2022-10-22T00:22:48;12.15;;;6.00;;
74630;SDS011;63138;55.082;38.804;2022-10-22T00:25:16;10.70;;;5.50;;
74630;SDS011;63138;55.082;38.804;2022-10-22T00:27:45;14.00;;;7.30;;
74630;SDS011;63138;55.082;38.804;2022-10-22T00:30:13;12.55;;;6.32;;
74630;SDS011;63138;55.082;38.804;2022-10-22T00:32:41;10.48;;;6.28;;
74630;SDS011;63138;55.082;38.804;2022-10-22T00:35:07;12.33;;;6.20;;
74630;SDS011;63138;55.082;38.804;2022-10-22T00:37:33;9.30;;;5.95;;
74630;SDS011;63138;55.082;38.804;2022-10-22T00:39:59;10.60;;;5.40;;
74630;SDS011;63138;55.082;38.804;2022-10-22T00:42:28;10.23;;;5.97;;
74630;SDS011;63138;55.082;38.804;2022-10-22T00:47:34;12.23;;;6.82;;
74630;SDS011;63138;55.082;38.804;2022-10-22T00:50:21;12.52;;;6.40;;
74630;SDS011;63138;55.082;38.804;2022-10-22T00:53:12;12.73;;;6.57;;
74630;SDS011;63138;55.082;38.804;2022-10-22T00:55:41;10.43;;;6.50;;
74630;SDS011;63138;55.082;38.804;2022-10-22T00:58:12;10.60;;;6.53;;
74630;SDS011;63138;55.082;38.804;2022-10-22T01:00:42;11.00;;;6.00;;
74630;SDS011;63138;55.082;38.804;2022-10-22T01:03:08;10.98;;;6.10;;
74630;SDS011;63138;55.082;38.804;2022-10-22T01:05:42;11.10;;;5.80;;
74630;SDS011;63138;55.082;38.804;2022-10-22T01:08:25;12.07;;;6.25;;
74630;SDS011;63138;55.082;38.804;2022-10-22T01:11:20;12.40;;;6.25;;
74630;SDS011;63138;55.082;38.804;2022-10-22T01:16:54;12.80;;;5.88;;
74630;SDS011;63138;55.082;38.804;2022-10-22T01:21:52;10.85;;;6.20;;
74630;SDS011;63138;55.082;38.804;2022-10-22T01:24:27;11.30;;;6.20;;
74630;SDS011;63138;55.082;38.804;2022-10-22T01:27:02;13.73;;;6.10;;
74630;SDS011;63138;55.082;38.804;2022-10-22T01:29:55;15.20;;;6.03;;
74630;SDS011;63138;55.082;38.804;2022-10-22T01:32:28;12.03;;;5.67;;
74630;SDS011;63138;55.082;38.804;2022-10-22T01:35:02;10.52;;;5.88;;
74630;SDS011;63138;55.082;38.804;2022-10-22T01:37:31;11.25;;;5.93;;
74630;SDS011;63138;55.082;38.804;2022-10-22T01:40:01;14.68;;;6.88;;
74630;SDS011;63138;55.082;38.804;2022-10-22T01:42:29;13.05;;;6.90;;
74630;SDS011;63138;55.082;38.804;2022-10-22T01:44:55;11.27;;;5.70;;
74630;SDS011;63138;55.082;38.804;2022-10-22T01:47:37;10.55;;;6.25;;
74630;SDS011;63138;55.082;38.804;2022-10-22T01:55:38;9.60;;;5.65;;
74630;SDS011;63138;55.082;38.804;2022-10-22T01:58:29;11.32;;;6.25;;
74630;SDS011;63138;55.082;38.804;2022-10-22T02:01:13;10.38;;;6.05;;
74630;SDS011;63138;55.082;38.804;2022-10-22T02:04:01;11.13;;;6.50;;
74630;SDS011;63138;55.082;38.804;2022-10-22T02:06:39;11.20;;;6.28;;
74630;SDS011;63138;55.082;38.804;2022-10-22T02:09:07;12.63;;;5.57;;
74630;SDS011;63138;55.082;38.804;2022-10-22T02:11:38;9.95;;;5.75;;
74630;SDS011;63138;55.082;38.804;2022-10-22T02:14:08;9.55;;;5.95;;
74630;SDS011;63138;55.082;38.804;2022-10-22T02:16:43;12.03;;;5.83;;
74630;SDS011;63138;55.082;38.804;2022-10-22T02:19:17;11.95;;;5.90;;
74630;SDS011;63138;55.082;38.804;2022-10-22T02:21:47;13.07;;;6.18;;
74630;SDS011;63138;55.082;38.804;2022-10-22T02:24:15;12.00;;;5.95;;
74630;SDS011;63138;55.082;38.804;2022-10-22T02:27:00;12.07;;;5.88;;
74630;SDS011;63138;55.082;38.804;2022-10-22T02:29:40;12.20;;;6.13;;
74630;SDS011;63138;55.082;38.804;2022-10-22T02:32:10;11.23;;;5.30;;
74630;SDS011;63138;55.082;38.804;2022-10-22T02:34:42;10.52;;;5.70;;
74630;SDS011;63138;55.082;38.804;2022-10-22T02:37:11;11.15;;;5.07;;
74630;SDS011;63138;55.082;38.804;2022-10-22T02:39:38;10.82;;;5.63;;
74630;SDS011;63138;55.082;38.804;2022-10-22T02:42:04;11.23;;;6.00;;
74630;SDS011;63138;55.082;38.804;2022-10-22T02:44:30;10.02;;;6.07;;
74630;SDS011;63138;55.082;38.804;2022-10-22T02:46:57;12.40;;;5.85;;
74630;SDS011;63138;55.082;38.804;2022-10-22T02:49:23;10.52;;;5.85;;
74630;SDS011;63138;55.082;38.804;2022-10-22T02:51:51;10.33;;;5.70;;
74630;SDS011;63138;55.082;38.804;2022-10-22T02:54:19;10.93;;;6.18;;
74630;SDS011;63138;55.082;38.804;2022-10-22T02:56:45;9.70;;;5.45;;
74630;SDS011;63138;55.082;38.804;2022-10-22T02:59:13;12.20;;;5.30;;
74630;SDS011;63138;55.082;38.804;2022-10-22T03:01:38;11.00;;;5.43;;
74630;SDS011;63138;55.082;38.804;2022-10-22T03:04:04;11.00;;;5.47;;
74630;SDS011;63138;55.082;38.804;2022-10-22T03:06:35;12.35;;;5.47;;
74630;SDS011;63138;55.082;38.804;2022-10-22T03:09:03;11.38;;;6.13;;
74630;SDS011;63138;55.082;38.804;2022-10-22T03:11:29;10.73;;;5.87;;
74630;SDS011;63138;55.082;38.804;2022-10-22T03:13:57;12.00;;;5.88;;
74630;SDS011;63138;55.082;38.804;2022-10-22T03:16:26;14.10;;;5.88;;
74630;SDS011;63138;55.082;38.804;2022-10-22T03:18:52;11.17;;;5.70;;
74630;SDS011;63138;55.082;38.804;2022-10-22T03:21:33;11.30;;;5.83;;
74630;SDS011;63138;55.082;38.804;2022-10-22T03:24:03;14.93;;;6.45;;
74630;SDS011;63138;55.082;38.804;2022-10-22T03:26:34;12.80;;;7.65;;
74630;SDS011;63138;55.082;38.804;2022-10-22T03:29:00;10.43;;;5.83;;
74630;SDS011;63138;55.082;38.804;2022-10-22T03:31:26;10.40;;;6.13;;
74630;SDS011;63138;55.082;38.804;2022-10-22T03:34:01;13.38;;;6.18;;
74630;SDS011;63138;55.082;38.804;2022-10-22T03:36:27;13.30;;;6.30;;
74630;SDS011;63138;55.082;38.804;2022-10-22T03:38:58;10.47;;;6.17;;
74630;SDS011;63138;55.082;38.804;2022-10-22T03:41:25;11.68;;;6.32;;
74630;SDS011;63138;55.082;38.804;2022-10-22T03:43:51;13.13;;;6.43;;
74630;SDS011;63138;55.082;38.804;2022-10-22T03:46:18;10.95;;;6.63;;
74630;SDS011;63138;55.082;38.804;2022-10-22T03:48:47;11.68;;;5.93;;
74630;SDS011;63138;55.082;38.804;2022-10-22T03:51:12;12.90;;;6.53;;
74630;SDS011;63138;55.082;38.804;2022-10-22T03:53:40;12.93;;;6.00;;
74630;SDS011;63138;55.082;38.804;2022-10-22T03:56:07;13.98;;;6.70;;
74630;SDS011;63138;55.082;38.804;2022-10-22T03:58:37;12.10;;;6.07;;
74630;SDS011;63138;55.082;38.804;2022-10-22T04:01:07;11.57;;;5.63;;
74630;SDS011;63138;55.082;38.804;2022-10-22T04:03:38;12.82;;;6.90;;
74630;SDS011;63138;55.082;38.804;2022-10-22T04:06:06;10.30;;;6.03;;
74630;SDS011;63138;55.082;38.804;2022-10-22T04:08:35;13.60;;;5.88;;
74630;SDS011;63138;55.082;38.804;2022-10-22T04:11:05;14.63;;;6.87;;
74630;SDS011;63138;55.082;38.804;2022-10-22T04:13:31;13.65;;;6.75;;
74630;SDS011;63138;55.082;38.804;2022-10-22T04:18:40;15.05;;;6.82;;
74630;SDS011;63138;55.082;38.804;2022-10-22T04:21:10;21.50;;;8.38;;
74630;SDS011;63138;55.082;38.804;2022-10-22T04:23:43;16.90;;;7.27;;
74630;SDS011;63138;55.082;38.804;2022-10-22T04:26:13;14.88;;;6.80;;
74630;SDS011;63138;55.082;38.804;2022-10-22T04:28:45;19.40;;;7.15;;
74630;SDS011;63138;55.082;38.804;2022-10-22T04:31:12;16.38;;;7.97;;
74630;SDS011;63138;55.082;38.804;2022-10-22T04:33:44;13.60;;;6.55;;
74630;SDS011;63138;55.082;38.804;2022-10-22T04:36:11;13.37;;;6.23;;
74630;SDS011;63138;55.082;38.804;2022-10-22T04:38:40;12.07;;;5.82;;
74630;SDS011;63138;55.082;38.804;2022-10-22T04:41:11;15.38;;;6.05;;
74630;SDS011;63138;55.082;38.804;2022-10-22T04:43:45;13.05;;;6.47;;
74630;SDS011;63138;55.082;38.804;2022-10-22T04:46:16;14.15;;;6.68;;
74630;SDS011;63138;55.082;38.804;2022-10-22T04:48:53;14.97;;;6.87;;
74630;SDS011;63138;55.082;38.804;2022-10-22T04:51:23;14.05;;;6.65;;
74630;SDS011;63138;55.082;38.804;2022-10-22T04:53:52;11.38;;;5.75;;
74630;SDS011;63138;55.082;38.804;2022-10-22T04:56:22;12.07;;;6.22;;
74630;SDS011;63138;55.082;38.804;2022-10-22T04:58:59;11.68;;;6.15;;
74630;SDS011;63138;55.082;38.804;2022-10-22T05:01:30;14.47;;;6.23;;
74630;SDS011;63138;55.082;38.804;2022-10-22T05:03:58;15.55;;;7.82;;
74630;SDS011;63138;55.082;38.804;2022-10-22T05:06:27;14.13;;;5.75;;
74630;SDS011;63138;55.082;38.804;2022-10-22T05:08:55;11.77;;;6.20;;
74630;SDS011;63138;55.082;38.804;2022-10-22T05:11:25;12.15;;;5.68;;
74630;SDS011;63138;55.082;38.804;2022-10-22T05:14:01;12.37;;;5.93;;
74630;SDS011;63138;55.082;38.804;2022-10-22T05:16:29;11.85;;;6.20;;
74630;SDS011;63138;55.082;38.804;2022-10-22T05:19:01;10.98;;;5.63;;
74630;SDS011;63138;55.082;38.804;2022-10-22T05:21:27;11.38;;;6.30;;
74630;SDS011;63138;55.082;38.804;2022-10-22T05:23:54;11.85;;;5.88;;
74630;SDS011;63138;55.082;38.804;2022-10-22T05:26:21;12.53;;;6.07;;
74630;SDS011;63138;55.082;38.804;2022-10-22T05:28:56;9.98;;;6.00;;
74630;SDS011;63138;55.082;38.804;2022-10-22T05:31:22;10.93;;;6.03;;
74630;SDS011;63138;55.082;38.804;2022-10-22T05:33:48;11.10;;;6.00;;
74630;SDS011;63138;55.082;38.804;2022-10-22T05:36:15;11.35;;;6.22;;
74630;SDS011;63138;55.082;38.804;2022-10-22T05:38:45;13.95;;;6.97;;
74630;SDS011;63138;55.082;38.804;2022-10-22T05:41:12;13.10;;;6.30;;
74630;SDS011;63138;55.082;38.804;2022-10-22T05:43:48;10.52;;;6.00;;
74630;SDS011;63138;55.082;38.804;2022-10-22T05:46:18;12.57;;;7.20;;
74630;SDS011;63138;55.082;38.804;2022-10-22T05:48:49;14.60;;;6.45;;
74630;SDS011;63138;55.082;38.804;2022-10-22T05:51:19;13.52;;;7.13;;
74630;SDS011;63138;55.082;38.804;2022-10-22T05:53:49;13.13;;;6.47;;
74630;SDS011;63138;55.082;38.804;2022-10-22T05:56:16;13.15;;;6.65;;
74630;SDS011;63138;55.082;38.804;2022-10-22T05:58:42;14.02;;;7.13;;
74630;SDS011;63138;55.082;38.804;2022-10-22T06:01:13;15.40;;;7.40;;
74630;SDS011;63138;55.082;38.804;2022-10-22T06:03:41;11.80;;;6.70;;
74630;SDS011;63138;55.082;38.804;2022-10-22T06:06:20;17.48;;;7.97;;
74630;SDS011;63138;55.082;38.804;2022-10-22T06:08:51;14.73;;;6.93;;
74630;SDS011;63138;55.082;38.804;2022-10-22T06:11:26;15.65;;;6.90;;
74630;SDS011;63138;55.082;38.804;2022-10-22T06:13:51;14.87;;;8.13;;
74630;SDS011;63138;55.082;38.804;2022-10-22T06:16:20;13.48;;;7.38;;
74630;SDS011;63138;55.082;38.804;2022-10-22T06:18:57;13.15;;;7.15;;
74630;SDS011;63138;55.082;38.804;2022-10-22T06:21:24;16.75;;;7.22;;
74630;SDS011;63138;55.082;38.804;2022-10-22T06:24:00;13.33;;;7.33;;
74630;SDS011;63138;55.082;38.804;2022-10-22T06:26:29;13.57;;;7.50;;
74630;SDS011;63138;55.082;38.804;2022-10-22T06:28:55;13.15;;;7.50;;
74630;SDS011;63138;55.082;38.804;2022-10-22T06:31:28;13.75;;;7.15;;
74630;SDS011;63138;55.082;38.804;2022-10-22T06:34:01;14.77;;;7.07;;
74630;SDS011;63138;55.082;38.804;2022-10-22T06:36:33;12.23;;;6.73;;
74630;SDS011;63138;55.082;38.804;2022-10-22T06:38:59;14.57;;;8.18;;
74630;SDS011;63138;55.082;38.804;2022-10-22T06:41:25;12.77;;;6.80;;
74630;SDS011;63138;55.082;38.804;2022-10-22T06:43:53;13.53;;;7.10;;
74630;SDS011;63138;55.082;38.804;2022-10-22T06:46:22;15.43;;;7.35;;
74630;SDS011;63138;55.082;38.804;2022-10-22T06:49:33;12.63;;;6.72;;
74630;SDS011;63138;55.082;38.804;2022-10-22T06:51:43;15.35;;;7.50;;
74630;SDS011;63138;55.082;38.804;2022-10-22T06:54:10;12.65;;;6.78;;
74630;SDS011;63138;55.082;38.804;2022-10-22T06:56:40;13.97;;;7.20;;
74630;SDS011;63138;55.082;38.804;2022-10-22T06:59:09;16.35;;;9.05;;
74630;SDS011;63138;55.082;38.804;2022-10-22T07:01:55;14.93;;;8.38;;
74630;SDS011;63138;55.082;38.804;2022-10-22T07:04:21;12.23;;;7.60;;
74630;SDS011;63138;55.082;38.804;2022-10-22T07:06:54;12.93;;;6.95;;
74630;SDS011;63138;55.082;38.804;2022-10-22T07:09:20;15.23;;;8.93;;
74630;SDS011;63138;55.082;38.804;2022-10-22T07:11:46;16.88;;;8.70;;
74630;SDS011;63138;55.082;38.804;2022-10-22T07:14:12;15.55;;;8.25;;
74630;SDS011;63138;55.082;38.804;2022-10-22T07:16:41;13.83;;;7.33;;
74630;SDS011;63138;55.082;38.804;2022-10-22T07:19:07;11.38;;;6.72;;
74630;SDS011;63138;55.082;38.804;2022-10-22T07:21:33;12.90;;;6.82;;
74630;SDS011;63138;55.082;38.804;2022-10-22T07:24:02;10.45;;;6.60;;
74630;SDS011;63138;55.082;38.804;2022-10-22T07:26:28;13.03;;;6.93;;
74630;SDS011;63138;55.082;38.804;2022-10-22T07:28:59;14.10;;;8.35;;
74630;SDS011;63138;55.082;38.804;2022-10-22T07:31:25;15.25;;;7.82;;
74630;SDS011;63138;55.082;38.804;2022-10-22T07:33:52;13.85;;;7.95;;
74630;SDS011;63138;55.082;38.804;2022-10-22T07:36:17;13.33;;;7.93;;
74630;SDS011;63138;55.082;38.804;2022-10-22T07:38:44;18.38;;;8.25;;
74630;SDS011;63138;55.082;38.804;2022-10-22T07:41:11;13.77;;;7.25;;
74630;SDS011;63138;55.082;38.804;2022-10-22T07:43:37;10.65;;;6.15;;
74630;SDS011;63138;55.082;38.804;2022-10-22T07:46:03;13.03;;;6.33;;
74630;SDS011;63138;55.082;38.804;2022-10-22T07:48:31;11.97;;;5.60;;
74630;SDS011;63138;55.082;38.804;2022-10-22T07:50:57;10.65;;;6.15;;
74630;SDS011;63138;55.082;38.804;2022-10-22T07:53:28;13.02;;;6.47;;
74630;SDS011;63138;55.082;38.804;2022-10-22T07:55:54;12.93;;;7.15;;
74630;SDS011;63138;55.082;38.804;2022-10-22T07:58:20;12.23;;;6.70;;
74630;SDS011;63138;55.082;38.804;2022-10-22T08:00:46;10.25;;;5.50;;
74630;SDS011;63138;55.082;38.804;2022-10-22T08:03:15;10.35;;;5.68;;
74630;SDS011;63138;55.082;38.804;2022-10-22T08:05:46;9.70;;;6.10;;
74630;SDS011;63138;55.082;38.804;2022-10-22T08:08:13;10.77;;;5.50;;
74630;SDS011;63138;55.082;38.804;2022-10-22T08:10:40;9.77;;;5.78;;
74630;SDS011;63138;55.082;38.804;2022-10-22T08:13:07;9.48;;;6.20;;
74630;SDS011;63138;55.082;38.804;2022-10-22T08:15:35;10.48;;;7.05;;
74630;SDS011;63138;55.082;38.804;2022-10-22T08:18:00;8.40;;;5.13;;
74630;SDS011;63138;55.082;38.804;2022-10-22T08:20:26;9.38;;;5.57;;
74630;SDS011;63138;55.082;38.804;2022-10-22T08:22:55;7.82;;;4.80;;
74630;SDS011;63138;55.082;38.804;2022-10-22T08:25:23;9.63;;;5.03;;
74630;SDS011;63138;55.082;38.804;2022-10-22T08:27:49;8.80;;;5.23;;
74630;SDS011;63138;55.082;38.804;2022-10-22T08:30:24;8.85;;;4.18;;
74630;SDS011;63138;55.082;38.804;2022-10-22T08:32:52;9.60;;;5.03;;
74630;SDS011;63138;55.082;38.804;2022-10-22T08:35:20;8.05;;;4.97;;
74630;SDS011;63138;55.082;38.804;2022-10-22T08:37:46;10.33;;;5.87;;
74630;SDS011;63138;55.082;38.804;2022-10-22T08:40:29;11.23;;;6.05;;
74630;SDS011;63138;55.082;38.804;2022-10-22T08:45:42;9.43;;;6.40;;
74630;SDS011;63138;55.082;38.804;2022-10-22T08:50:57;12.30;;;6.97;;
74630;SDS011;63138;55.082;38.804;2022-10-22T08:56:36;11.60;;;6.90;;
74630;SDS011;63138;55.082;38.804;2022-10-22T08:59:27;10.47;;;6.97;;
74630;SDS011;63138;55.082;38.804;2022-10-22T09:01:57;11.93;;;6.45;;
74630;SDS011;63138;55.082;38.804;2022-10-22T09:04:31;14.38;;;6.55;;
74630;SDS011;63138;55.082;38.804;2022-10-22T09:07:07;8.93;;;6.22;;
74630;SDS011;63138;55.082;38.804;2022-10-22T09:09:35;10.45;;;6.15;;
74630;SDS011;63138;55.082;38.804;2022-10-22T09:12:09;8.63;;;5.97;;
74630;SDS011;63138;55.082;38.804;2022-10-22T09:14:39;12.32;;;6.30;;
74630;SDS011;63138;55.082;38.804;2022-10-22T09:17:17;9.20;;;5.85;;
74630;SDS011;63138;55.082;38.804;2022-10-22T09:22:52;10.30;;;6.13;;
74630;SDS011;63138;55.082;38.804;2022-10-22T09:25:55;9.15;;;5.60;;
74630;SDS011;63138;55.082;38.804;2022-10-22T09:28:22;8.52;;;5.43;;
74630;SDS011;63138;55.082;38.804;2022-10-22T09:30:48;10.10;;;6.35;;
74630;SDS011;63138;55.082;38.804;2022-10-22T09:33:32;7.37;;;5.07;;
74630;SDS011;63138;55.082;38.804;2022-10-22T09:35:59;8.35;;;5.40;;
74630;SDS011;63138;55.082;38.804;2022-10-22T09:38:29;9.68;;;6.60;;
74630;SDS011;63138;55.082;38.804;2022-10-22T09:40:58;7.45;;;5.22;;
74630;SDS011;63138;55.082;38.804;2022-10-22T09:43:25;7.15;;;4.95;;
74630;SDS011;63138;55.082;38.804;2022-10-22T09:45:59;7.77;;;4.07;;
74630;SDS011;63138;55.082;38.804;2022-10-22T09:48:29;7.32;;;5.07;;
74630;SDS011;63138;55.082;38.804;2022-10-22T09:53:45;8.85;;;5.70;;
74630;SDS011;63138;55.082;38.804;2022-10-22T09:58:57;10.17;;;5.73;;
74630;SDS011;63138;55.082;38.804;2022-10-22T10:01:24;5.60;;;4.03;;
74630;SDS011;63138;55.082;38.804;2022-10-22T10:03:52;10.35;;;6.28;;
74630;SDS011;63138;55.082;38.804;2022-10-22T10:06:19;8.43;;;5.57;;
74630;SDS011;63138;55.082;38.804;2022-10-22T10:08:49;8.18;;;5.43;;
74630;SDS011;63138;55.082;38.804;2022-10-22T10:11:35;8.32;;;5.65;;
74630;SDS011;63138;55.082;38.804;2022-10-22T10:23:14;10.10;;;4.93;;
74630;SDS011;63138;55.082;38.804;2022-10-22T10:28:36;7.03;;;4.60;;
74630;SDS011;63138;55.082;38.804;2022-10-22T10:31:15;8.43;;;5.30;;
74630;SDS011;63138;55.082;38.804;2022-10-22T10:42:45;10.93;;;5.53;;
74630;SDS011;63138;55.082;38.804;2022-10-22T10:51:17;8.93;;;5.07;;
74630;SDS011;63138;55.082;38.804;2022-10-22T10:56:55;9.25;;;4.65;;
74630;SDS011;63138;55.082;38.804;2022-10-22T10:59:52;6.40;;;4.33;;
74630;SDS011;63138;55.082;38.804;2022-10-22T11:02:37;8.52;;;4.90;;
74630;SDS011;63138;55.082;38.804;2022-10-22T11:05:53;7.85;;;5.18;;
74630;SDS011;63138;55.082;38.804;2022-10-22T11:08:22;7.82;;;4.70;;
74630;SDS011;63138;55.082;38.804;2022-10-22T11:13:52;10.67;;;5.83;;
74630;SDS011;63138;55.082;38.804;2022-10-22T11:16:25;6.28;;;4.10;;
74630;SDS011;63138;55.082;38.804;2022-10-22T11:19:06;6.32;;;3.58;;
74630;SDS011;63138;55.082;38.804;2022-10-22T11:21:40;6.07;;;3.03;;
74630;SDS011;63138;55.082;38.804;2022-10-22T11:24:16;4.50;;;2.58;;
74630;SDS011;63138;55.082;38.804;2022-10-22T11:29:41;7.78;;;3.80;;
74630;SDS011;63138;55.082;38.804;2022-10-22T11:32:13;6.35;;;3.53;;
74630;SDS011;63138;55.082;38.804;2022-10-22T11:34:44;5.40;;;3.10;;
74630;SDS011;63138;55.082;38.804;2022-10-22T11:37:18;4.40;;;2.70;;
74630;SDS011;63138;55.082;38.804;2022-10-22T11:42:57;7.55;;;3.42;;
74630;SDS011;63138;55.082;38.804;2022-10-22T11:45:38;5.07;;;3.22;;
74630;SDS011;63138;55.082;38.804;2022-10-22T11:50:49;5.90;;;3.20;;
74630;SDS011;63138;55.082;38.804;2022-10-22T12:06:52;7.10;;;3.47;;
74630;SDS011;63138;55.082;38.804;2022-10-22T12:09:21;8.23;;;3.53;;
74630;SDS011;63138;55.082;38.804;2022-10-22T12:11:51;6.45;;;3.42;;
74630;SDS011;63138;55.082;38.804;2022-10-22T12:14:18;4.93;;;2.83;;
74630;SDS011;63138;55.082;38.804;2022-10-22T12:19:28;4.00;;;2.10;;
74630;SDS011;63138;55.082;38.804;2022-10-22T12:22:10;4.30;;;2.30;;
74630;SDS011;63138;55.082;38.804;2022-10-22T12:24:39;4.53;;;2.53;;
74630;SDS011;63138;55.082;38.804;2022-10-22T12:27:15;4.75;;;2.58;;
74630;SDS011;63138;55.082;38.804;2022-10-22T12:29:44;4.32;;;2.50;;
74630;SDS011;63138;55.082;38.804;2022-10-22T12:32:14;6.97;;;3.00;;
74630;SDS011;63138;55.082;38.804;2022-10-22T12:34:51;5.70;;;2.80;;
74630;SDS011;63138;55.082;38.804;2022-10-22T12:37:17;9.63;;;2.92;;
74630;SDS011;63138;55.082;38.804;2022-10-22T12:39:47;7.57;;;3.00;;
74630;SDS011;63138;55.082;38.804;2022-10-22T12:42:16;5.45;;;3.03;;
74630;SDS011;63138;55.082;38.804;2022-10-22T12:44:54;5.60;;;2.80;;
74630;SDS011;63138;55.082;38.804;2022-10-22T12:47:21;7.03;;;3.40;;
74630;SDS011;63138;55.082;38.804;2022-10-22T12:49:49;9.00;;;3.83;;
74630;SDS011;63138;55.082;38.804;2022-10-22T12:52:17;7.30;;;3.10;;
74630;SDS011;63138;55.082;38.804;2022-10-22T12:54:46;7.38;;;3.13;;
74630;SDS011;63138;55.082;38.804;2022-10-22T12:57:17;10.80;;;4.07;;
74630;SDS011;63138;55.082;38.804;2022-10-22T12:59:52;8.88;;;3.13;;
74630;SDS011;63138;55.082;38.804;2022-10-22T13:02:23;6.65;;;3.25;;
74630;SDS011;63138;55.082;38.804;2022-10-22T13:07:47;8.00;;;4.10;;
74630;SDS011;63138;55.082;38.804;2022-10-22T13:10:23;8.90;;;4.50;;
74630;SDS011;63138;55.082;38.804;2022-10-22T13:12:53;10.60;;;5.05;;
74630;SDS011;63138;55.082;38.804;2022-10-22T13:20:54;7.32;;;4.20;;
74630;SDS011;63138;55.082;38.804;2022-10-22T13:23:26;9.77;;;4.40;;
74630;SDS011;63138;55.082;38.804;2022-10-22T13:25:57;11.38;;;3.58;;
74630;SDS011;63138;55.082;38.804;2022-10-22T13:28:34;9.82;;;4.47;;
74630;SDS011;63138;55.082;38.804;2022-10-22T13:31:01;10.10;;;4.68;;
74630;SDS011;63138;55.082;38.804;2022-10-22T13:33:37;10.15;;;5.45;;
74630;SDS011;63138;55.082;38.804;2022-10-22T13:36:05;10.20;;;4.77;;
74630;SDS011;63138;55.082;38.804;2022-10-22T13:38:37;7.70;;;3.90;;
74630;SDS011;63138;55.082;38.804;2022-10-22T13:41:03;11.82;;;4.32;;
74630;SDS011;63138;55.082;38.804;2022-10-22T13:43:39;4.70;;;2.78;;
74630;SDS011;63138;55.082;38.804;2022-10-22T13:46:07;8.00;;;3.80;;
74630;SDS011;63138;55.082;38.804;2022-10-22T13:48:34;10.63;;;6.03;;
74630;SDS011;63138;55.082;38.804;2022-10-22T13:51:03;16.38;;;7.10;;
74630;SDS011;63138;55.082;38.804;2022-10-22T13:53:34;7.95;;;4.72;;
74630;SDS011;63138;55.082;38.804;2022-10-22T13:56:03;11.80;;;5.13;;
74630;SDS011;63138;55.082;38.804;2022-10-22T13:58:29;10.38;;;4.00;;
74630;SDS011;63138;55.082;38.804;2022-10-22T14:00:58;6.40;;;3.80;;
74630;SDS011;63138;55.082;38.804;2022-10-22T14:03:31;5.75;;;3.70;;
74630;SDS011;63138;55.082;38.804;2022-10-22T14:05:58;7.93;;;3.75;;
74630;SDS011;63138;55.082;38.804;2022-10-22T14:08:25;6.30;;;3.40;;
74630;SDS011;63138;55.082;38.804;2022-10-22T14:10:54;5.82;;;3.70;;
74630;SDS011;63138;55.082;38.804;2022-10-22T14:13:22;5.60;;;3.00;;
74630;SDS011;63138;55.082;38.804;2022-10-22T14:15:51;6.97;;;4.60;;
74630;SDS011;63138;55.082;38.804;2022-10-22T14:18:19;7.63;;;3.97;;
74630;SDS011;63138;55.082;38.804;2022-10-22T14:20:57;9.77;;;6.53;;
74630;SDS011;63138;55.082;38.804;2022-10-22T14:23:30;8.13;;;5.40;;
74630;SDS011;63138;55.082;38.804;2022-10-22T14:26:05;9.53;;;5.23;;
74630;SDS011;63138;55.082;38.804;2022-10-22T14:28:34;13.13;;;5.57;;
74630;SDS011;63138;55.082;38.804;2022-10-22T14:31:00;12.43;;;8.63;;
74630;SDS011;63138;55.082;38.804;2022-10-22T14:33:27;11.57;;;6.07;;
74630;SDS011;63138;55.082;38.804;2022-10-22T14:35:54;14.27;;;9.65;;
74630;SDS011;63138;55.082;38.804;2022-10-22T14:38:22;13.87;;;8.57;;
74630;SDS011;63138;55.082;38.804;2022-10-22T14:40:51;10.05;;;6.30;;
74630;SDS011;63138;55.082;38.804;2022-10-22T14:43:27;12.15;;;6.68;;
74630;SDS011;63138;55.082;38.804;2022-10-22T14:45:55;11.73;;;5.10;;
74630;SDS011;63138;55.082;38.804;2022-10-22T14:48:25;9.53;;;4.93;;
74630;SDS011;63138;55.082;38.804;2022-10-22T14:50:51;7.50;;;3.90;;
74630;SDS011;63138;55.082;38.804;2022-10-22T14:53:19;9.60;;;5.55;;
74630;SDS011;63138;55.082;38.804;2022-10-22T14:55:45;13.65;;;5.30;;
74630;SDS011;63138;55.082;38.804;2022-10-22T14:58:15;8.40;;;4.60;;
74630;SDS011;63138;55.082;38.804;2022-10-22T15:00:44;10.88;;;6.05;;
74630;SDS011;63138;55.082;38.804;2022-10-22T15:03:18;9.32;;;4.65;;
74630;SDS011;63138;55.082;38.804;2022-10-22T15:05:44;9.07;;;4.60;;
74630;SDS011;63138;55.082;38.804;2022-10-22T15:08:11;8.10;;;4.75;;
74630;SDS011;63138;55.082;38.804;2022-10-22T15:10:38;10.50;;;5.70;;
74630;SDS011;63138;55.082;38.804;2022-10-22T15:13:05;10.05;;;6.47;;
74630;SDS011;63138;55.082;38.804;2022-10-22T15:15:33;13.70;;;7.28;;
74630;SDS011;63138;55.082;38.804;2022-10-22T15:17:59;9.85;;;5.70;;
74630;SDS011;63138;55.082;38.804;2022-10-22T15:20:25;10.37;;;6.50;;
74630;SDS011;63138;55.082;38.804;2022-10-22T15:22:54;13.10;;;6.85;;
74630;SDS011;63138;55.082;38.804;2022-10-22T15:25:20;11.00;;;5.32;;
74630;SDS011;63138;55.082;38.804;2022-10-22T15:27:47;11.75;;;5.38;;
74630;SDS011;63138;55.082;38.804;2022-10-22T15:30:15;12.27;;;5.50;;
74630;SDS011;63138;55.082;38.804;2022-10-22T15:32:41;9.30;;;4.23;;
74630;SDS011;63138;55.082;38.804;2022-10-22T15:35:07;8.63;;;4.47;;
74630;SDS011;63138;55.082;38.804;2022-10-22T15:37:33;9.53;;;4.40;;
74630;SDS011;63138;55.082;38.804;2022-10-22T15:40:02;10.18;;;4.47;;
74630;SDS011;63138;55.082;38.804;2022-10-22T15:42:32;11.50;;;4.57;;
74630;SDS011;63138;55.082;38.804;2022-10-22T15:44:58;10.73;;;6.30;;
74630;SDS011;63138;55.082;38.804;2022-10-22T15:47:29;9.80;;;6.82;;
74630;SDS011;63138;55.082;38.804;2022-10-22T15:50:08;14.73;;;8.67;;
74630;SDS011;63138;55.082;38.804;2022-10-22T15:52:36;12.13;;;7.45;;
74630;SDS011;63138;55.082;38.804;2022-10-22T15:55:05;8.32;;;5.57;;
74630;SDS011;63138;55.082;38.804;2022-10-22T15:57:37;13.30;;;5.28;;
74630;SDS011;63138;55.082;38.804;2022-10-22T16:00:06;9.93;;;5.25;;
74630;SDS011;63138;55.082;38.804;2022-10-22T16:02:40;11.27;;;4.73;;
74630;SDS011;63138;55.082;38.804;2022-10-22T16:05:06;7.97;;;4.30;;
74630;SDS011;63138;55.082;38.804;2022-10-22T16:07:32;12.13;;;5.65;;
74630;SDS011;63138;55.082;38.804;2022-10-22T16:09:58;8.07;;;4.47;;
74630;SDS011;63138;55.082;38.804;2022-10-22T16:12:26;8.90;;;5.15;;
74630;SDS011;63138;55.082;38.804;2022-10-22T16:14:54;9.05;;;5.13;;
74630;SDS011;63138;55.082;38.804;2022-10-22T16:17:20;9.80;;;5.17;;
74630;SDS011;63138;55.082;38.804;2022-10-22T16:19:46;8.10;;;4.63;;
74630;SDS011;63138;55.082;38.804;2022-10-22T16:22:18;6.55;;;3.50;;
74630;SDS011;63138;55.082;38.804;2022-10-22T16:25:02;8.63;;;4.03;;